Time;durP1;ratioP1;P1;durP2;ratioP2;P2;SDS_P1;SDS_P2;PMS_P1;PMS_P2;Temp;Humidity;BMP_temperature;BMP_pressure;BME280_temperature;BME280_humidity;BME280_pressure;Samples;Min_cycle;Max_cycle;Signal;HPM_P1;HPM_P2
2021/04/21 00:01:10;;;;;;;6.00;5.25;;;;;;;12.24;27.69;101027.50;4938718;28;96695;-73
2021/04/21 00:03:38;;;;;;;12.48;5.30;;;;;;;12.26;27.72;101023.06;4942913;28;96857;-72
2021/04/21 00:06:08;;;;;;;7.03;5.13;;;;;;;12.20;27.67;101025.66;4941284;28;96900;-72
2021/04/21 00:08:36;;;;;;;5.10;4.60;;;;;;;12.20;27.67;101025.66;4939118;28;99177;-72
2021/04/21 00:11:04;;;;;;;6.22;4.25;;;;;;;12.15;27.60;101030.84;4941134;28;97075;-73
2021/04/21 00:13:31;;;;;;;4.82;4.38;;;;;;;12.09;27.80;101020.97;4943570;28;97408;-72
2021/04/21 00:15:58;;;;;;;6.53;4.75;;;;;;;12.03;27.81;101019.97;4939203;28;98987;-72
2021/04/21 00:18:27;;;;;;;9.13;5.43;;;;;;;11.94;27.25;101026.00;4939117;28;98453;-73
2021/04/21 00:20:57;;;;;;;6.57;4.68;;;;;;;11.84;27.58;101021.38;4940118;28;97583;-73
2021/04/21 00:23:25;;;;;;;8.60;4.70;;;;;;;11.78;27.59;101023.03;4939604;28;96921;-73
2021/04/21 00:25:54;;;;;;;4.75;4.32;;;;;;;11.61;27.87;101025.34;4940794;28;98697;-73
2021/04/21 00:28:24;;;;;;;4.85;4.22;;;;;;;11.56;28.11;101021.66;4956700;28;98067;-72
2021/04/21 00:30:53;;;;;;;6.28;4.32;;;;;;;11.53;28.01;101018.94;4938573;28;97537;-72
2021/04/21 00:33:20;;;;;;;8.70;4.65;;;;;;;11.52;27.98;101021.59;4939854;28;96943;-73
2021/04/21 00:35:50;;;;;;;5.65;4.38;;;;;;;11.51;28.07;101014.44;4941921;28;97683;-72
2021/04/21 00:38:20;;;;;;;9.02;4.03;;;;;;;11.47;28.03;101017.94;4941201;28;98456;-73
2021/04/21 00:40:53;;;;;;;5.32;4.50;;;;;;;11.46;27.64;101017.03;4957113;28;97492;-74
2021/04/21 00:43:27;;;;;;;7.55;4.60;;;;;;;11.45;27.97;101017.88;4941480;28;96915;-72
2021/04/21 00:46:04;;;;;;;6.72;4.60;;;;;;;11.43;28.04;101014.31;4941027;28;99027;-72
2021/04/21 00:48:44;;;;;;;4.80;4.30;;;;;;;11.41;27.98;101015.13;4939547;28;98375;-72
2021/04/21 00:51:12;;;;;;;6.35;4.68;;;;;;;11.38;28.07;101020.41;4941140;28;97478;-74
2021/04/21 00:53:41;;;;;;;5.30;4.80;;;;;;;11.34;28.30;101014.13;4944447;28;97184;-73
2021/04/21 00:56:27;;;;;;;9.32;5.43;;;;;;;11.33;28.18;101012.28;4943435;28;99423;-73
2021/04/21 00:58:58;;;;;;;5.32;4.82;;;;;;;11.34;28.10;101018.53;4943128;28;97659;-73
2021/04/21 01:01:28;;;;;;;7.40;4.28;;;;;;;11.26;28.23;101013.00;4945442;28;96842;-73
2021/04/21 01:03:56;;;;;;;5.72;4.72;;;;;;;11.28;28.22;101013.94;4941450;28;97295;-72
2021/04/21 01:06:27;;;;;;;5.10;4.57;;;;;;;11.21;28.13;101017.34;4925928;28;96811;-74
2021/04/21 01:08:56;;;;;;;8.70;4.88;;;;;;;11.17;28.27;101020.78;4926374;28;100231;-72
2021/04/21 01:11:29;;;;;;;9.18;6.10;;;;;;;11.08;28.29;101007.25;4942481;28;97972;-73
2021/04/21 01:13:58;;;;;;;7.07;5.88;;;;;;;11.07;28.15;101011.69;4942933;28;96866;-73
2021/04/21 01:16:29;;;;;;;5.47;4.95;;;;;;;11.13;28.05;101013.59;4944548;28;97995;-75
2021/04/21 01:18:58;;;;;;;7.50;4.85;;;;;;;11.06;28.32;101007.25;4961112;28;99007;-72
2021/04/21 01:21:28;;;;;;;7.30;5.38;;;;;;;10.97;28.16;101006.13;4945587;28;97461;-73
2021/04/21 01:24:09;;;;;;;7.43;4.88;;;;;;;10.90;28.19;101005.06;4945977;28;97386;-73
2021/04/21 01:26:50;;;;;;;5.18;4.75;;;;;;;10.86;28.33;101007.63;4943997;28;100960;-74
2021/04/21 01:29:22;;;;;;;7.30;5.47;;;;;;;10.82;28.31;101011.09;4925995;28;98015;-73
2021/04/21 01:31:50;;;;;;;8.60;5.47;;;;;;;10.82;28.13;101005.75;4958985;28;97121;-73
2021/04/21 01:34:20;;;;;;;7.85;5.68;;;;;;;10.81;28.06;101010.16;4943224;28;97349;-73
2021/04/21 01:36:48;;;;;;;8.35;5.40;;;;;;;10.84;28.04;101006.69;4941229;28;99088;-73
2021/04/21 01:39:17;;;;;;;8.60;5.27;;;;;;;10.87;27.99;101009.41;4940519;28;98594;-72
2021/04/21 01:41:47;;;;;;;5.03;4.63;;;;;;;10.90;27.97;101012.16;4942613;28;97080;-72
2021/04/21 01:44:15;;;;;;;7.25;4.85;;;;;;;10.88;27.99;101011.22;4960149;28;96879;-74
2021/04/21 01:46:47;;;;;;;9.00;5.53;;;;;;;10.81;27.99;101012.84;4939705;28;100213;-72
2021/04/21 01:49:57;;;;;;;10.23;5.95;;;;;;;10.78;27.90;101019.84;4941985;28;96924;-75
2021/04/21 01:52:43;;;;;;;5.80;5.25;;;;;;;10.70;28.09;101018.78;4943403;28;97273;-73
2021/04/21 01:55:26;;;;;;;12.70;5.65;;;;;;;10.60;28.12;101016.75;4943054;28;97174;-72
2021/04/21 01:57:56;;;;;;;10.30;4.68;;;;;;;10.50;28.41;101022.72;4943120;28;97728;-72
2021/04/21 02:00:31;;;;;;;6.97;5.13;;;;;;;10.40;28.37;101018.88;4941941;28;97868;-73
2021/04/21 02:03:11;;;;;;;7.10;5.07;;;;;;;10.32;28.53;101014.22;4944054;28;96988;-71
2021/04/21 02:05:45;;;;;;;7.90;5.63;;;;;;;10.28;28.70;101015.91;4941985;28;97272;-74
2021/04/21 02:08:16;;;;;;;8.05;6.18;;;;;;;10.32;28.92;101015.09;4940467;28;97323;-72
2021/04/21 02:10:48;;;;;;;9.60;6.10;;;;;;;10.34;28.96;101018.72;4939582;28;97078;-72
2021/04/21 02:13:22;;;;;;;12.32;6.18;;;;;;;10.38;28.92;101015.28;4956022;28;96797;-74
2021/04/21 02:16:11;;;;;;;9.68;6.30;;;;;;;10.43;28.73;101015.44;4957593;28;97010;-75
2021/04/21 02:18:51;;;;;;;11.53;5.67;;;;;;;10.45;28.77;101009.28;4940883;28;98221;-73
2021/04/21 02:21:21;;;;;;;6.22;5.30;;;;;;;10.45;28.66;101011.94;4942080;28;99727;-73
2021/04/21 02:23:54;;;;;;;10.02;5.97;;;;;;;10.40;28.74;101010.91;4938852;28;97823;-73
2021/04/21 02:26:26;;;;;;;6.60;5.03;;;;;;;10.41;28.75;101014.47;4943270;28;96962;-74
2021/04/21 02:28:58;;;;;;;9.88;5.28;;;;;;;10.41;28.39;101011.81;4940724;28;99857;-73
2021/04/21 02:31:41;;;;;;;7.22;5.03;;;;;;;10.39;28.72;101001.13;4940193;28;97721;-72
2021/04/21 02:34:14;;;;;;;9.25;5.40;;;;;;;10.37;28.72;101004.59;4942966;28;96727;-72
2021/04/21 02:36:44;;;;;;;5.32;4.85;;;;;;;10.33;28.73;101006.28;4957704;28;96812;-73
2021/04/21 02:39:21;;;;;;;7.35;5.13;;;;;;;10.31;28.73;100994.72;4940287;28;97007;-73
2021/04/21 02:42:05;;;;;;;5.20;4.47;;;;;;;10.27;28.72;101002.56;4933731;28;98505;-72
2021/04/21 02:44:43;;;;;;;7.28;5.75;;;;;;;10.23;28.71;101006.91;4942027;28;97175;-71
2021/04/21 02:47:16;;;;;;;7.30;4.72;;;;;;;10.16;28.83;101003.19;4941909;28;97511;-71
2021/04/21 02:50:07;;;;;;;7.68;4.88;;;;;;;10.15;28.86;101014.69;4943081;28;98304;-72
2021/04/21 02:52:42;;;;;;;5.63;4.75;;;;;;;10.12;28.83;101014.59;4942859;28;97773;-72
2021/04/21 02:55:14;;;;;;;9.40;5.70;;;;;;;10.11;28.90;101014.56;4924335;28;97130;-73
2021/04/21 02:57:50;;;;;;;6.30;5.10;;;;;;;10.08;28.88;101011.84;4941891;28;97029;-72
2021/04/21 03:00:23;;;;;;;7.93;6.00;;;;;;;10.09;29.05;101009.22;4943053;28;97309;-72
2021/04/21 03:02:57;;;;;;;5.28;4.80;;;;;;;10.05;28.89;101012.63;4939274;28;97326;-72
2021/04/21 03:05:26;;;;;;;8.27;5.82;;;;;;;9.99;29.10;101008.94;4938927;28;96813;-73
2021/04/21 03:07:57;;;;;;;7.55;5.03;;;;;;;9.97;28.98;101014.19;4941394;28;96832;-72
2021/04/21 03:10:28;;;;;;;10.20;5.53;;;;;;;9.95;29.00;101010.59;4942068;28;96806;-73
2021/04/21 03:13:12;;;;;;;10.00;5.13;;;;;;;9.95;29.03;101017.66;4943286;28;98869;-72
2021/04/21 03:15:44;;;;;;;6.57;5.68;;;;;;;9.88;28.95;101010.41;4941629;28;96939;-72
2021/04/21 03:18:14;;;;;;;9.57;6.38;;;;;;;9.83;29.10;101001.38;4941869;28;97271;-72
2021/04/21 03:20:44;;;;;;;6.10;5.32;;;;;;;9.80;29.06;101003.94;4939909;28;99166;-72
2021/04/21 03:23:13;;;;;;;6.63;6.00;;;;;;;9.76;28.95;101002.06;4941145;28;100486;-72
2021/04/21 03:25:42;;;;;;;6.70;6.00;;;;;;;9.77;29.18;101002.09;4943157;28;96711;-71
2021/04/21 03:28:11;;;;;;;6.25;5.30;;;;;;;9.75;29.08;100998.53;4942597;28;96896;-72
2021/04/21 03:30:39;;;;;;;10.02;5.53;;;;;;;9.72;29.17;101002.81;4941263;28;98683;-72
2021/04/21 03:33:10;;;;;;;5.97;5.40;;;;;;;9.72;29.24;101005.47;4940722;28;98366;-71
2021/04/21 03:35:37;;;;;;;9.30;5.88;;;;;;;9.70;29.32;101004.56;4943769;28;97198;-72
2021/04/21 03:38:08;;;;;;;7.20;5.82;;;;;;;9.67;29.19;101008.03;4942524;28;96863;-74
2021/04/21 03:40:36;;;;;;;8.88;5.50;;;;;;;9.67;29.19;101005.38;4943127;28;98275;-72
2021/04/21 03:43:03;;;;;;;23.27;12.98;;;;;;;9.63;29.24;101006.13;4924432;28;99112;-74
2021/04/21 03:45:31;;;;;;;22.80;12.20;;;;;;;9.61;29.32;101002.53;4941744;28;97125;-73
2021/04/21 03:47:59;;;;;;;12.63;6.03;;;;;;;9.60;29.32;100995.44;4943289;28;97026;-73
2021/04/21 03:50:28;;;;;;;7.05;6.18;;;;;;;9.56;29.30;101004.16;4941843;28;96817;-72
2021/04/21 03:52:57;;;;;;;8.65;7.40;;;;;;;9.52;29.41;100999.63;4942782;28;96961;-73
2021/04/21 03:55:25;;;;;;;8.32;6.85;;;;;;;9.53;29.50;100997.88;4958018;28;97392;-72
2021/04/21 03:57:56;;;;;;;7.53;6.15;;;;;;;9.51;29.53;100999.56;4941073;28;96806;-73
2021/04/21 04:00:24;;;;;;;12.07;8.18;;;;;;;9.49;29.52;100991.56;4940545;28;99883;-73
2021/04/21 04:02:57;;;;;;;10.95;7.43;;;;;;;9.45;29.62;100994.03;4958134;28;98094;-72
2021/04/21 04:05:26;;;;;;;6.53;5.75;;;;;;;9.44;29.58;100992.25;4942255;28;97281;-73
2021/04/21 04:07:56;;;;;;;9.73;7.13;;;;;;;9.38;30.10;100992.97;4939752;28;97414;-72
2021/04/21 04:10:25;;;;;;;7.07;6.35;;;;;;;9.43;29.80;100996.66;4942316;28;98909;-72
2021/04/21 04:12:54;;;;;;;9.60;7.68;;;;;;;9.46;29.80;100994.13;4941724;28;98836;-73
2021/04/21 04:15:22;;;;;;;10.05;8.88;;;;;;;9.46;29.85;100991.47;4925777;28;96963;-72
2021/04/21 04:17:50;;;;;;;14.13;9.38;;;;;;;9.44;29.75;100993.16;4959017;28;97356;-74
2021/04/21 04:20:17;;;;;;;25.30;15.88;;;;;;;9.43;29.81;100995.75;4924768;28;99462;-73
2021/04/21 04:22:48;;;;;;;11.80;8.98;;;;;;;9.38;29.80;100998.28;4957718;28;98004;-73
2021/04/21 04:25:17;;;;;;;11.00;7.15;;;;;;;9.41;29.51;100998.38;4942671;28;96928;-75
2021/04/21 04:27:46;;;;;;;48.38;21.85;;;;;;;9.41;29.68;100998.38;4956657;28;97218;-73
2021/04/21 04:30:15;;;;;;;14.85;9.70;;;;;;;9.45;29.73;100997.59;4960029;28;98382;-74
2021/04/21 04:32:43;;;;;;;8.77;7.70;;;;;;;9.41;29.67;101003.69;4927008;28;98782;-73
2021/04/21 04:35:11;;;;;;;8.48;6.97;;;;;;;9.41;29.74;101005.47;4958245;28;97263;-74
2021/04/21 04:37:40;;;;;;;9.02;6.90;;;;;;;9.39;29.78;101005.38;4944010;28;97204;-73
2021/04/21 04:40:09;;;;;;;8.48;7.05;;;;;;;9.35;29.92;101005.28;4942172;28;99815;-72
2021/04/21 04:42:37;;;;;;;9.95;7.57;;;;;;;9.36;29.60;101001.75;4945883;28;98372;-74
2021/04/21 04:45:12;;;;;;;9.65;6.72;;;;;;;9.36;29.98;101012.38;4941177;28;97207;-74
2021/04/21 04:47:45;;;;;;;10.07;6.65;;;;;;;9.34;29.77;101009.66;4954702;28;97541;-75
2021/04/21 04:50:13;;;;;;;8.13;6.80;;;;;;;9.33;29.85;101012.28;4939107;28;97842;-74
2021/04/21 04:52:42;;;;;;;11.30;7.28;;;;;;;9.33;29.98;101014.94;4941214;28;97442;-72
2021/04/21 04:55:10;;;;;;;10.77;6.88;;;;;;;9.34;29.96;101012.31;4940758;28;97282;-74
2021/04/21 04:57:39;;;;;;;8.85;7.90;;;;;;;9.34;29.86;101017.63;4940801;28;97725;-72
2021/04/21 05:00:08;;;;;;;11.35;6.70;;;;;;;9.34;30.15;101027.34;4938644;28;97925;-72
2021/04/21 05:02:38;;;;;;;9.13;7.78;;;;;;;9.35;29.97;101030.09;4940557;28;97883;-72
2021/04/21 05:05:07;;;;;;;10.25;7.45;;;;;;;9.33;30.20;101030.88;4938847;28;96873;-72
2021/04/21 05:07:39;;;;;;;13.27;7.75;;;;;;;9.36;30.02;101033.63;4956103;28;97260;-72
2021/04/21 05:10:11;;;;;;;9.63;7.57;;;;;;;9.39;29.97;101036.38;4940537;28;97193;-71
2021/04/21 05:12:38;;;;;;;9.73;7.18;;;;;;;9.39;29.87;101044.34;4940225;28;100304;-74
2021/04/21 05:15:08;;;;;;;9.30;7.50;;;;;;;9.37;29.96;101044.28;4940786;28;97249;-73
2021/04/21 05:18:16;;;;;;;7.80;7.07;;;;;;;9.37;29.96;101046.94;4934144;28;97313;-74
2021/04/21 05:21:22;;;;;;;8.45;7.57;;;;;;;9.37;29.91;101040.75;4948456;28;98292;-75
2021/04/21 05:24:43;;;;;;;7.60;6.85;;;;;;;9.38;29.81;101046.09;4914080;28;97961;-73
2021/04/21 05:27:52;;;;;;;9.85;7.10;;;;;;;9.37;29.90;101048.72;4935783;28;97206;-75
2021/04/21 05:31:24;;;;;;;7.85;6.10;;;;;;;9.32;29.81;101045.91;4922439;28;96916;-74
2021/04/21 05:34:44;;;;;;;8.00;6.55;;;;;;;9.31;29.66;101054.75;4935738;28;97222;-73
2021/04/21 05:37:57;;;;;;;9.02;6.40;;;;;;;9.26;29.81;101052.78;4920779;28;96996;-73
2021/04/21 05:40:57;;;;;;;10.07;6.80;;;;;;;9.28;29.89;101054.63;4918533;28;97025;-74
2021/04/21 05:44:21;;;;;;;7.50;5.97;;;;;;;9.30;29.69;101050.25;4937298;28;97006;-74
2021/04/21 05:47:16;;;;;;;8.48;6.40;;;;;;;9.30;29.82;101050.25;4898341;28;97652;-76
2021/04/21 05:50:29;;;;;;;7.97;6.63;;;;;;;9.33;29.80;101050.38;4935069;28;98339;-75
2021/04/21 05:53:19;;;;;;;7.93;6.32;;;;;;;9.34;29.77;101046.84;4905656;28;97009;-75
2021/04/21 05:56:25;;;;;;;12.30;8.15;;;;;;;9.35;29.78;101051.31;4941692;28;96950;-74
2021/04/21 05:59:09;;;;;;;9.38;6.70;;;;;;;9.40;29.75;101049.69;4939596;28;99666;-74
2021/04/21 06:01:37;;;;;;;10.98;7.13;;;;;;;9.46;29.75;101044.59;4956741;28;98513;-74
2021/04/21 06:04:04;;;;;;;10.02;6.70;;;;;;;9.46;29.92;101057.88;4952504;28;96890;-73
2021/04/21 06:06:31;;;;;;;9.90;6.60;;;;;;;9.48;29.80;101050.84;4920214;28;98133;-75
2021/04/21 06:09:06;;;;;;;8.07;7.28;;;;;;;9.50;29.69;101058.88;4936920;28;97958;-73
2021/04/21 06:11:33;;;;;;;10.23;7.43;;;;;;;9.48;29.81;101053.50;4938908;28;98562;-74
2021/04/21 06:14:06;;;;;;;14.30;7.65;;;;;;;9.46;29.90;101049.91;4937826;28;97370;-73
2021/04/21 06:16:34;;;;;;;10.00;7.35;;;;;;;9.51;29.77;101061.59;4939458;28;97310;-74
2021/04/21 06:19:04;;;;;;;10.45;7.13;;;;;;;9.55;29.83;101058.16;4921495;28;98523;-73
2021/04/21 06:21:33;;;;;;;12.20;7.30;;;;;;;9.60;29.72;101060.94;4938559;28;97259;-73
2021/04/21 06:24:04;;;;;;;10.70;7.10;;;;;;;9.67;29.87;101054.94;4936660;28;97019;-73
2021/04/21 06:26:32;;;;;;;11.63;7.55;;;;;;;9.73;29.71;101055.13;4937851;28;96881;-73
2021/04/21 06:29:04;;;;;;;16.40;7.70;;;;;;;9.80;29.56;101054.44;4939497;28;96850;-74
2021/04/21 06:31:39;;;;;;;9.98;7.68;;;;;;;9.90;29.65;101054.75;4922145;28;97935;-74
2021/04/21 06:34:08;;;;;;;11.32;7.70;;;;;;;9.95;29.39;101050.47;4920495;28;96818;-72
2021/04/21 06:36:41;;;;;;;11.05;8.30;;;;;;;10.07;29.62;101053.47;4939551;28;97165;-72
2021/04/21 06:39:10;;;;;;;11.13;8.10;;;;;;;10.14;29.57;101049.19;4939238;28;97933;-73
2021/04/21 06:41:38;;;;;;;11.73;8.20;;;;;;;10.20;29.47;101050.28;4937862;28;98767;-74
2021/04/21 06:44:05;;;;;;;11.48;8.35;;;;;;;10.26;29.46;101049.56;4937136;28;97652;-74
2021/04/21 06:46:33;;;;;;;10.75;7.80;;;;;;;10.38;29.33;101056.94;4936055;28;96890;-75
2021/04/21 06:49:01;;;;;;;12.05;8.85;;;;;;;10.45;29.38;101054.50;4936196;28;98558;-74
2021/04/21 06:51:31;;;;;;;11.82;8.10;;;;;;;10.52;29.16;101052.94;4936202;28;100363;-74
2021/04/21 06:53:59;;;;;;;11.80;9.00;;;;;;;10.60;29.35;101056.66;4951984;28;96798;-73
2021/04/21 06:56:32;;;;;;;10.07;8.65;;;;;;;10.69;29.23;101057.81;4933857;28;97547;-74
2021/04/21 06:59:00;;;;;;;14.52;7.93;;;;;;;10.77;29.10;101050.00;4930661;28;99715;-74
2021/04/21 07:01:49;;;;;;;13.00;8.43;;;;;;;10.83;29.14;101045.72;4952712;28;96838;-73
2021/04/21 07:04:18;;;;;;;11.82;9.82;;;;;;;10.93;28.90;101046.84;4937899;28;96707;-74
2021/04/21 07:06:49;;;;;;;10.77;8.27;;;;;;;11.03;28.95;101054.22;4935403;28;97148;-72
2021/04/21 07:09:17;;;;;;;13.07;9.02;;;;;;;11.11;28.88;101052.59;4935346;28;99611;-73
2021/04/21 07:11:46;;;;;;;11.27;9.30;;;;;;;11.18;28.80;101043.88;4937078;28;96823;-74
2021/04/21 07:14:19;;;;;;;9.52;8.52;;;;;;;11.26;28.86;101047.63;4934106;28;97191;-74
2021/04/21 07:16:46;;;;;;;12.88;10.35;;;;;;;11.35;28.68;101046.97;4936494;28;96981;-73
2021/04/21 07:19:14;;;;;;;14.23;9.07;;;;;;;11.44;28.50;101040.06;4937198;28;97684;-75
2021/04/21 07:21:43;;;;;;;16.02;9.43;;;;;;;11.56;28.61;101042.13;4937627;28;98537;-74
2021/04/21 07:24:11;;;;;;;10.48;8.60;;;;;;;11.59;28.57;101042.16;4937580;28;96765;-74
2021/04/21 07:26:40;;;;;;;9.60;8.55;;;;;;;11.63;28.38;101042.28;4934983;28;96929;-73
2021/04/21 07:29:10;;;;;;;8.93;8.02;;;;;;;11.67;28.38;101041.44;4932043;28;96941;-75
2021/04/21 07:31:38;;;;;;;11.80;7.88;;;;;;;11.75;28.33;101044.28;4933580;28;98848;-74
2021/04/21 07:34:27;;;;;;;12.88;7.75;;;;;;;11.82;27.93;101044.44;4936767;28;97332;-72
2021/04/21 07:36:54;;;;;;;10.40;8.05;;;;;;;11.89;28.10;101043.69;4950540;28;97408;-72
2021/04/21 07:39:22;;;;;;;13.07;7.03;;;;;;;11.97;28.05;101047.41;4935123;28;98504;-73
2021/04/21 07:41:51;;;;;;;9.18;7.10;;;;;;;12.05;27.95;101044.91;4935227;28;99437;-73
2021/04/21 07:44:27;;;;;;;14.75;7.28;;;;;;;12.12;27.67;101053.06;4953053;28;97105;-73
2021/04/21 07:46:57;;;;;;;7.93;7.00;;;;;;;12.17;27.61;101046.06;4934651;28;97612;-74
2021/04/21 07:49:30;;;;;;;9.93;6.90;;;;;;;12.13;27.50;101044.16;4917728;28;96888;-73
2021/04/21 07:51:57;;;;;;;12.85;8.35;;;;;;;12.12;27.81;101057.47;4935413;28;99160;-74
2021/04/21 07:54:27;;;;;;;8.77;7.60;;;;;;;12.21;27.85;101052.34;4917958;28;97342;-72
2021/04/21 07:57:03;;;;;;;10.93;7.07;;;;;;;12.34;27.23;101048.13;4919416;28;99135;-73
2021/04/21 07:59:32;;;;;;;9.10;7.25;;;;;;;12.40;27.67;101048.25;4934053;28;100152;-73
2021/04/21 08:02:10;;;;;;;10.13;7.03;;;;;;;12.44;27.40;101052.75;4936577;28;98605;-74
2021/04/21 08:05:05;;;;;;;10.73;6.85;;;;;;;12.47;26.53;101052.84;4931938;28;97223;-74
2021/04/21 08:07:35;;;;;;;8.07;6.63;;;;;;;12.48;27.34;101050.19;4917273;28;97046;-74
2021/04/21 08:10:05;;;;;;;9.82;7.65;;;;;;;12.54;27.41;101041.38;4951214;28;98742;-74
2021/04/21 08:12:35;;;;;;;8.25;7.20;;;;;;;12.58;27.23;101052.16;4934835;28;97886;-74
2021/04/21 08:15:06;;;;;;;9.48;6.22;;;;;;;12.61;27.10;101048.63;4918780;28;97020;-75
2021/04/21 08:17:52;;;;;;;11.52;7.22;;;;;;;12.66;26.75;101046.91;4930903;28;97412;-74
2021/04/21 08:20:27;;;;;;;9.63;6.53;;;;;;;12.68;26.88;101045.19;4952105;28;98152;-75
2021/04/21 08:22:56;;;;;;;7.38;6.03;;;;;;;12.72;27.13;101044.34;4934507;28;99471;-74
2021/04/21 08:25:23;;;;;;;8.32;6.50;;;;;;;12.74;26.88;101043.53;4933887;28;97397;-74
2021/04/21 08:27:50;;;;;;;9.13;6.15;;;;;;;12.84;26.89;101047.22;4936464;28;98466;-74
2021/04/21 08:30:18;;;;;;;7.70;5.78;;;;;;;12.85;26.73;101049.94;4917229;28;99826;-72
2021/04/21 08:32:45;;;;;;;9.15;6.18;;;;;;;12.91;26.66;101044.66;4934794;28;100174;-74
2021/04/21 08:35:14;;;;;;;8.38;6.28;;;;;;;13.00;26.70;101047.50;4920476;28;96870;-74
2021/04/21 08:37:41;;;;;;;11.13;6.15;;;;;;;13.01;26.73;101052.00;4938527;28;96818;-73
2021/04/21 08:40:10;;;;;;;12.32;6.28;;;;;;;13.03;26.52;101049.34;4941471;28;99413;-73
2021/04/21 08:42:39;;;;;;;10.05;7.10;;;;;;;13.09;26.30;101044.09;4922664;28;99258;-72
2021/04/21 08:45:07;;;;;;;11.95;7.05;;;;;;;13.15;26.38;101045.09;4941327;28;97505;-74
2021/04/21 08:47:35;;;;;;;9.10;6.75;;;;;;;13.18;26.31;101041.56;4939975;28;96904;-73
2021/04/21 08:50:03;;;;;;;12.10;7.28;;;;;;;13.22;26.28;101047.84;4941199;28;97504;-73
2021/04/21 08:52:36;;;;;;;8.57;5.93;;;;;;;13.27;26.20;101051.50;4939971;28;96928;-73
2021/04/21 08:55:04;;;;;;;9.00;6.32;;;;;;;13.24;26.30;101049.66;4938921;28;97562;-75
2021/04/21 08:57:36;;;;;;;10.32;5.65;;;;;;;13.26;26.04;101045.22;4939109;28;97337;-73
2021/04/21 09:00:05;;;;;;;10.13;6.55;;;;;;;13.31;26.06;101045.31;4938847;28;96908;-74
2021/04/21 09:02:33;;;;;;;9.13;6.68;;;;;;;13.38;25.99;101050.78;4949250;28;98005;-74
2021/04/21 09:05:03;;;;;;;8.93;6.35;;;;;;;13.43;26.11;101054.41;4935033;28;97507;-73
2021/04/21 09:07:38;;;;;;;9.02;6.07;;;;;;;13.46;25.89;101048.22;4937346;28;98058;-74
2021/04/21 09:10:06;;;;;;;10.52;6.25;;;;;;;13.49;25.92;101041.13;4931540;28;97603;-73
2021/04/21 09:12:33;;;;;;;9.15;6.72;;;;;;;13.54;25.94;101047.44;4937799;28;98906;-74
2021/04/21 09:15:00;;;;;;;9.27;6.15;;;;;;;13.56;25.76;101045.66;4956263;28;96920;-74
2021/04/21 09:17:28;;;;;;;8.02;5.72;;;;;;;13.55;25.66;101046.53;4943553;28;96963;-73
2021/04/21 09:19:57;;;;;;;9.18;5.68;;;;;;;13.60;25.78;101043.94;4942546;28;96838;-74
2021/04/21 09:22:26;;;;;;;8.90;6.03;;;;;;;13.61;25.48;101035.00;4927834;28;101216;-73
2021/04/21 09:24:57;;;;;;;7.78;5.40;;;;;;;13.69;25.31;101039.59;4941444;28;96830;-73
2021/04/21 09:27:26;;;;;;;8.20;6.53;;;;;;;13.77;25.26;101032.56;4945171;28;96798;-73
2021/04/21 09:30:09;;;;;;;5.55;5.03;;;;;;;13.82;22.44;101032.66;4943377;28;99838;-73
2021/04/21 09:32:44;;;;;;;6.70;5.43;;;;;;;13.84;23.98;101031.78;4941707;28;99689;-73
2021/04/21 09:35:23;;;;;;;6.32;5.45;;;;;;;13.92;24.41;101031.88;4959376;28;97599;-73
2021/04/21 09:37:53;;;;;;;6.65;5.60;;;;;;;13.97;24.90;101030.13;4945315;28;96904;-73
2021/04/21 09:40:44;;;;;;;6.97;5.85;;;;;;;14.04;23.73;101027.56;4928446;28;100750;-73
2021/04/21 09:43:13;;;;;;;5.57;5.05;;;;;;;14.06;24.63;101036.50;4944613;28;99700;-73
2021/04/21 09:45:45;;;;;;;5.90;5.30;;;;;;;14.15;24.51;101028.56;4944241;28;97058;-73
2021/04/21 09:48:15;;;;;;;8.57;5.10;;;;;;;14.24;24.49;101037.59;4926880;28;97288;-73
2021/04/21 09:50:45;;;;;;;6.07;5.35;;;;;;;14.27;24.53;101035.84;4943646;28;97055;-73
2021/04/21 09:53:20;;;;;;;5.72;5.18;;;;;;;14.29;23.18;101038.53;4943005;28;99223;-73
2021/04/21 09:56:12;;;;;;;10.25;5.32;;;;;;;14.28;23.12;101039.41;4928157;28;97071;-73
2021/04/21 09:58:41;;;;;;;8.45;5.20;;;;;;;14.23;24.16;101035.78;4940491;28;96792;-73
2021/04/21 10:01:26;;;;;;;6.43;5.00;;;;;;;14.30;23.49;101027.81;4944453;28;98006;-73
2021/04/21 10:04:08;;;;;;;7.68;5.60;;;;;;;14.36;22.89;101025.22;4944919;28;97079;-73
2021/04/21 10:06:37;;;;;;;8.82;4.63;;;;;;;14.45;24.23;101019.03;4942450;28;97553;-73
2021/04/21 10:09:05;;;;;;;6.85;4.45;;;;;;;14.52;24.13;101015.53;4943452;28;97456;-73
2021/04/21 10:11:32;;;;;;;6.72;4.82;;;;;;;14.58;23.98;101027.25;4943773;28;97420;-73
2021/04/21 10:14:00;;;;;;;6.88;4.68;;;;;;;14.59;23.70;101017.44;4942591;28;98221;-73
2021/04/21 10:16:27;;;;;;;7.78;5.18;;;;;;;14.66;23.79;101024.63;4942494;28;97880;-74
2021/04/21 10:18:54;;;;;;;8.30;5.78;;;;;;;14.71;23.57;101022.88;4944727;28;97454;-73
2021/04/21 10:21:22;;;;;;;6.55;5.00;;;;;;;14.71;23.77;101025.56;4943420;28;98996;-73
2021/04/21 10:23:50;;;;;;;19.20;10.13;;;;;;;14.74;23.72;101017.53;4942907;28;97252;-73
2021/04/21 10:26:18;;;;;;;11.73;7.97;;;;;;;14.78;23.53;101022.94;4939384;28;97274;-73
2021/04/21 10:28:46;;;;;;;9.15;5.88;;;;;;;14.83;23.40;101012.25;4942242;28;96800;-73
2021/04/21 10:31:16;;;;;;;6.38;5.57;;;;;;;14.88;23.14;101015.88;4942532;28;98854;-73
2021/04/21 10:33:44;;;;;;;6.65;4.88;;;;;;;14.87;23.44;101014.06;4939548;28;98523;-74
2021/04/21 10:36:11;;;;;;;7.00;5.13;;;;;;;14.93;23.42;101008.75;4943612;28;97126;-73
2021/04/21 10:38:41;;;;;;;5.00;4.55;;;;;;;14.94;23.04;101010.53;4943633;28;96893;-73
2021/04/21 10:41:34;;;;;;;6.07;5.00;;;;;;;14.94;21.78;101006.09;4959065;28;98956;-72
2021/04/21 10:44:09;;;;;;;8.18;5.72;;;;;;;15.00;22.78;100994.50;4923071;28;98377;-73
2021/04/21 10:47:03;;;;;;;6.07;4.78;;;;;;;15.08;22.25;101003.50;4942015;28;97068;-73
2021/04/21 10:49:40;;;;;;;6.95;5.70;;;;;;;15.05;22.63;100999.00;4941619;28;97850;-73
2021/04/21 10:52:15;;;;;;;5.55;4.97;;;;;;;15.08;22.75;100993.66;4939650;28;100106;-72
2021/04/21 10:54:42;;;;;;;21.15;6.50;;;;;;;15.12;23.18;101002.59;4924635;28;98514;-72
2021/04/21 10:57:28;;;;;;;10.57;5.82;;;;;;;15.18;21.80;100989.25;4940999;28;97493;-72
2021/04/21 11:00:11;;;;;;;7.93;5.68;;;;;;;15.23;21.98;100994.66;4940900;28;97708;-73
2021/04/21 11:02:57;;;;;;;6.63;5.85;;;;;;;15.32;21.86;100992.94;4922461;28;97664;-73
2021/04/21 11:05:29;;;;;;;8.55;5.35;;;;;;;15.36;22.74;101002.78;4940973;28;99170;-73
2021/04/21 11:08:01;;;;;;;6.78;5.60;;;;;;;15.30;20.57;101000.09;4922031;28;97268;-73
2021/04/21 11:10:41;;;;;;;8.70;6.35;;;;;;;15.38;22.47;101001.00;4940784;28;97295;-73
2021/04/21 11:13:09;;;;;;;12.80;7.65;;;;;;;15.54;22.46;100993.97;4940936;28;96872;-73
2021/04/21 11:15:39;;;;;;;9.38;5.93;;;;;;;15.62;22.39;100997.53;4941166;28;96740;-73
2021/04/21 11:18:30;;;;;;;6.43;4.90;;;;;;;15.72;21.74;100994.03;4941251;28;97320;-73
2021/04/21 11:20:59;;;;;;;9.43;5.45;;;;;;;15.76;22.05;100991.34;4925876;28;96945;-73
2021/04/21 11:24:03;;;;;;;9.15;5.40;;;;;;;15.89;20.79;100982.44;4958853;28;99140;-72
2021/04/21 11:26:49;;;;;;;6.47;4.88;;;;;;;15.92;19.83;100981.56;4943959;28;98492;-74
2021/04/21 11:29:30;;;;;;;6.25;4.78;;;;;;;15.96;19.98;100978.88;4942360;28;96929;-72
2021/04/21 11:32:14;;;;;;;6.35;5.22;;;;;;;16.00;20.98;100971.72;4942795;28;97996;-72
2021/04/21 11:34:42;;;;;;;10.00;5.07;;;;;;;16.08;21.94;100981.63;4941976;28;98975;-72
2021/04/21 11:37:11;;;;;;;6.90;6.00;;;;;;;15.96;20.23;100984.22;4939367;28;99277;-73
2021/04/21 11:40:10;;;;;;;5.45;4.40;;;;;;;16.12;19.13;100969.09;4942336;28;96915;-73
2021/04/21 11:42:39;;;;;;;6.20;5.20;;;;;;;16.20;20.36;100969.09;4936765;28;97499;-76
2021/04/21 11:45:29;;;;;;;6.47;5.78;;;;;;;16.27;19.09;100974.47;4941658;28;97937;-72
2021/04/21 11:48:18;;;;;;;7.10;5.70;;;;;;;16.37;20.26;100964.63;4941126;28;96853;-72
2021/04/21 11:50:48;;;;;;;7.38;4.53;;;;;;;16.42;21.08;100962.84;4941101;28;96946;-73
2021/04/21 11:53:17;;;;;;;7.53;5.00;;;;;;;16.39;21.16;100968.22;4939976;28;97167;-73
2021/04/21 11:55:54;;;;;;;8.13;6.10;;;;;;;16.45;21.23;100973.59;4942202;28;97746;-73